< < Back
Terminal Aerodrome Forecast


Current Version              Previous Versions:   1  2  3  4  5  6  7  8  9  

Terminal Aerodrome Forecast

631
FTUS42 KGSP 032347
TAFHKY
TAF
KHKY 032347Z 0400/0424 VRB04KT P6SM VCSH SCT020 BKN040
     FM040200 25006KT P6SM BKN040 OVC100
     FM040800 24006KT P6SM BKN020 PROB30 0410/0414 5SM -TSRA
      BKN015CB
     FM041600 25008KT P6SM BKN035 PROB30 0420/0424 5SM TSRA
      BKN030CB=

Latest METAR

630
SAUS70 KWBC 032000 RRF
MTRHKY
METAR KHKY 031953Z VRB04KT 10SM SCT030 SCT036 BKN050 26/21 A2990 RMK AO2
RAB07E36 SLP104 P0002 T02610211


USA.gov is the U.S. government's official web portal to all federal, state and local government web resources and services.